Terminal Aerodrome Forecast
Issued by NWS Quad Cities IA IL

Home | Current Version | Previous Version | Text Only | Print | Product List | Glossary On
Versions: 1 2 3 4 5 6 7 8 9 10 11 12 13 14 15 16 17 18 19 20 21 22
198
FTUS43 KDVN 271736
TAFDBQ
TAF
KDBQ 271736Z 2718/2818 28020G27KT P6SM SKC
     FM272100 29014G23KT P6SM SCT025 BKN040
     FM280300 33007KT P6SM VCSH BKN030
     FM280700 33009KT P6SM -RA OVC020
     FM281300 34013KT P6SM VCSH OVC015=

USA.gov is the U.S. government's official web portal to all federal, state and local government web resources and services.